Huvudsida
METAR-TAF:

METAR-TAF

Flygplatser :

Arlanda

Stockholm-Arlanda, Sverige

latitud: 59-39N, longitud: 017-57E, höjd: 38 m

Aktuellt väderrapport

Denna rapport gjordes för 39 minuter sedan, klockan 15:50 UTC
Vind 7 kt från ost
Temperatur 17°C
Fuktighet 68%
Tryck 1012 hPa
Sikt 10 km eller mer
Få moln på en höjd av 2300 ft

METAR: ESSA 071550Z 09007KT 9999 FEW023 17/11 Q1012 NOSIG

Tid: 18:29 (16:29 UTC)

Väderprognos

Denna rapport gjordes för 1 timme och 59 minuter sedan, klockan 14:30 UTC
Prognos gäller från 07 kl. 15 UTC till 08 kl. 15 UTC
Vind 4 kt varierande vindriktning
Sikt 10 km eller mer
Spridda moln på en höjd av 1500 ft
Sannolikhet 40%
från 07 kl. 22 UTC till 08 kl. 03 UTC
Sikt: 3000 m
dimbankar

TAF: ESSA 071430Z 0715/0815 VRB04KT 9999 SCT015 PROB40 0722/0803 3000 BCFG

Aktuella väderrapporter och prognoser från 4000 flygplatser (METAR- och TAF-rapporter).

De tillgängliga stationerna syns som gula och röda prickar på kartan.

För musen över prickarna för att se namnen på stationerna.

Klicka sedan för att få väderrapporter och prognoser.

För att ändra kartan: Klicka på de gröna knapparna med ett svart kors på för att zooma in; den gröna knappen med ett streck på för att zooma ut; eller på de gröna pilarna för angränsande kartor.


METAR-TAF: